IBE0471 LEMD-LEVX
Flight info
| Callsign | IBE0471 |
|---|---|
| Flight time | 0h 46m |
| Altitude | 30000 |
| Route | ZMR N733 DESAT DCT BARKO |
| Aircraft | A20N/M-SDE2E3FGHIRWXY/LB1 |
Departure
| Time | 2026-04-30 19:19 |
|---|---|
| Airport | Adolfo Suárez Madrid–Barajas Airport (LEMD) |
Arrival
| Time | 2026-04-30 20:06 |
|---|---|
| Airport | Vigo Airport (LEVX) |
| Time | Latitude | Longitude | Altitude | Speed | Heading |
|---|---|---|---|---|---|
| 2026-04-30 18:47 | 40.48796 | -3.59164 | 2022 ft | 0 kts | 89° |
| 2026-04-30 19:06 | 40.48795 | -3.59182 | 2035 ft | 4 kts | 92° |
| 2026-04-30 19:06 | 40.48807 | -3.59250 | 2031 ft | 4 kts | 129° |
| 2026-04-30 19:07 | 40.48822 | -3.59265 | 2028 ft | 0 kts | 180° |
| 2026-04-30 19:10 | 40.48783 | -3.59264 | 2022 ft | 6 kts | 179° |
| 2026-04-30 19:10 | 40.48662 | -3.59263 | 2027 ft | 11 kts | 180° |
| 2026-04-30 19:11 | 40.48589 | -3.59263 | 2029 ft | 10 kts | 179° |
| 2026-04-30 19:11 | 40.48547 | -3.59170 | 2029 ft | 5 kts | 88° |
| 2026-04-30 19:11 | 40.48548 | -3.59127 | 2030 ft | 5 kts | 89° |
| 2026-04-30 19:12 | 40.48548 | -3.59071 | 2027 ft | 7 kts | 90° |
| 2026-04-30 19:12 | 40.48548 | -3.58994 | 2029 ft | 10 kts | 89° |
| 2026-04-30 19:12 | 40.48548 | -3.58903 | 2030 ft | 10 kts | 90° |
| 2026-04-30 19:13 | 40.48593 | -3.58808 | 2022 ft | 5 kts | 358° |
| 2026-04-30 19:13 | 40.48695 | -3.58810 | 2024 ft | 10 kts | 359° |
| 2026-04-30 19:13 | 40.48767 | -3.58810 | 2027 ft | 10 kts | 360° |
| 2026-04-30 19:14 | 40.48831 | -3.58811 | 2022 ft | 9 kts | 359° |
| 2026-04-30 19:14 | 40.48886 | -3.58811 | 2022 ft | 8 kts | 359° |
| 2026-04-30 19:14 | 40.48939 | -3.58811 | 2023 ft | 8 kts | 0° |
| 2026-04-30 19:14 | 40.48996 | -3.58811 | 2022 ft | 9 kts | 360° |
| 2026-04-30 19:15 | 40.49067 | -3.58812 | 2024 ft | 11 kts | 1° |
| 2026-04-30 19:15 | 40.49225 | -3.58794 | 2028 ft | 10 kts | 44° |
| 2026-04-30 19:15 | 40.49240 | -3.58698 | 2030 ft | 11 kts | 90° |
| 2026-04-30 19:16 | 40.49241 | -3.58584 | 2026 ft | 14 kts | 89° |
| 2026-04-30 19:16 | 40.49242 | -3.58447 | 2014 ft | 15 kts | 89° |
| 2026-04-30 19:16 | 40.49243 | -3.58135 | 2004 ft | 14 kts | 90° |
| 2026-04-30 19:17 | 40.49243 | -3.57993 | 2000 ft | 13 kts | 89° |
| 2026-04-30 19:17 | 40.49244 | -3.57724 | 1990 ft | 15 kts | 90° |
| 2026-04-30 19:17 | 40.49251 | -3.57604 | 1986 ft | 9 kts | 73° |
| 2026-04-30 19:18 | 40.49337 | -3.57466 | 1985 ft | 13 kts | 37° |
| 2026-04-30 19:18 | 40.49479 | -3.57454 | 1983 ft | 35 kts | 360° |
| 2026-04-30 19:18 | 40.49947 | -3.57456 | 1986 ft | 99 kts | 360° |
| 2026-04-30 19:19 | 40.50811 | -3.57465 | 1996 ft | 147 kts | 360° |
| 2026-04-30 19:19 | 40.51963 | -3.57477 | 2135 ft | 173 kts | 358° |
| 2026-04-30 19:19 | 40.54395 | -3.57529 | 3292 ft | 180 kts | 359° |
| 2026-04-30 19:20 | 40.55668 | -3.57660 | 3745 ft | 190 kts | 338° |
| 2026-04-30 19:20 | 40.56672 | -3.58840 | 3998 ft | 206 kts | 298° |
| 2026-04-30 19:20 | 40.58271 | -3.62228 | 5033 ft | 231 kts | 319° |
| 2026-04-30 19:21 | 40.59556 | -3.63490 | 6040 ft | 230 kts | 324° |
| 2026-04-30 19:21 | 40.62197 | -3.65976 | 7911 ft | 236 kts | 321° |
| 2026-04-30 19:22 | 40.65167 | -3.67738 | 9681 ft | 245 kts | 1° |
| 2026-04-30 19:22 | 40.70788 | -3.66912 | 11116 ft | 307 kts | 6° |
| 2026-04-30 19:23 | 40.77666 | -3.67516 | 12535 ft | 352 kts | 328° |
| 2026-04-30 19:24 | 40.80858 | -3.72301 | 14139 ft | 355 kts | 297° |
| 2026-04-30 19:24 | 40.82048 | -3.75177 | 14905 ft | 358 kts | 296° |
| 2026-04-30 19:24 | 40.84429 | -3.81042 | 16417 ft | 366 kts | 296° |
| 2026-04-30 19:25 | 40.88166 | -3.90065 | 18553 ft | 379 kts | 297° |
| 2026-04-30 19:26 | 40.90738 | -3.96244 | 19783 ft | 386 kts | 297° |
| 2026-04-30 19:26 | 40.93351 | -4.02533 | 21026 ft | 394 kts | 297° |
| 2026-04-30 19:26 | 40.94675 | -4.05728 | 21640 ft | 397 kts | 297° |
| 2026-04-30 19:27 | 40.97354 | -4.12201 | 22824 ft | 405 kts | 297° |
| 2026-04-30 19:27 | 41.00084 | -4.18812 | 23950 ft | 412 kts | 297° |
| 2026-04-30 19:28 | 41.01443 | -4.22107 | 24445 ft | 415 kts | 296° |
| 2026-04-30 19:28 | 41.04064 | -4.28938 | 25390 ft | 420 kts | 294° |
| 2026-04-30 19:29 | 41.06622 | -4.35968 | 26306 ft | 427 kts | 294° |
| 2026-04-30 19:29 | 41.07924 | -4.39513 | 26749 ft | 430 kts | 294° |
| 2026-04-30 19:30 | 41.11911 | -4.50318 | 28013 ft | 439 kts | 294° |
| 2026-04-30 19:30 | 41.14611 | -4.57642 | 28790 ft | 445 kts | 294° |
| 2026-04-30 19:31 | 41.17339 | -4.65065 | 29112 ft | 448 kts | 293° |
| 2026-04-30 19:31 | 41.21429 | -4.76223 | 29115 ft | 448 kts | 293° |
| 2026-04-30 19:32 | 41.24131 | -4.83621 | 29113 ft | 448 kts | 293° |
| 2026-04-30 19:32 | 41.26846 | -4.91075 | 29114 ft | 448 kts | 293° |
| 2026-04-30 19:33 | 41.29556 | -4.98534 | 29117 ft | 448 kts | 293° |
| 2026-04-30 19:33 | 41.32265 | -5.06009 | 29115 ft | 448 kts | 293° |
| 2026-04-30 19:34 | 41.34969 | -5.13493 | 29115 ft | 448 kts | 293° |
| 2026-04-30 19:35 | 41.39020 | -5.24737 | 29112 ft | 448 kts | 293° |
| 2026-04-30 19:35 | 41.41696 | -5.32191 | 29118 ft | 449 kts | 293° |
| 2026-04-30 19:36 | 41.44384 | -5.39696 | 29115 ft | 449 kts | 293° |
| 2026-04-30 19:36 | 41.48409 | -5.50973 | 29115 ft | 449 kts | 293° |
| 2026-04-30 19:37 | 41.51086 | -5.58498 | 29111 ft | 449 kts | 293° |
| 2026-04-30 19:37 | 41.54007 | -5.65865 | 29109 ft | 452 kts | 302° |
| 2026-04-30 19:38 | 41.57603 | -5.72691 | 29108 ft | 452 kts | 302° |
| 2026-04-30 19:38 | 41.61206 | -5.79580 | 29112 ft | 452 kts | 302° |
| 2026-04-30 19:39 | 41.64805 | -5.86479 | 29103 ft | 452 kts | 302° |
| 2026-04-30 19:39 | 41.68400 | -5.93386 | 29104 ft | 452 kts | 302° |
| 2026-04-30 19:40 | 41.71991 | -6.00300 | 29105 ft | 452 kts | 302° |
| 2026-04-30 19:40 | 41.75559 | -6.07185 | 29101 ft | 452 kts | 302° |
| 2026-04-30 19:41 | 41.79146 | -6.14121 | 29102 ft | 452 kts | 302° |
| 2026-04-30 19:41 | 41.82724 | -6.21058 | 29095 ft | 452 kts | 302° |
| 2026-04-30 19:42 | 41.86299 | -6.28006 | 29097 ft | 452 kts | 302° |
| 2026-04-30 19:42 | 41.89865 | -6.34955 | 29101 ft | 452 kts | 302° |
| 2026-04-30 19:43 | 41.93429 | -6.41917 | 29094 ft | 452 kts | 302° |
| 2026-04-30 19:44 | 41.98768 | -6.52374 | 29097 ft | 452 kts | 302° |
| 2026-04-30 19:44 | 42.02322 | -6.59356 | 29093 ft | 452 kts | 302° |
| 2026-04-30 19:45 | 42.05869 | -6.66341 | 29093 ft | 453 kts | 302° |
| 2026-04-30 19:45 | 42.09417 | -6.73341 | 28812 ft | 451 kts | 302° |
| 2026-04-30 19:45 | 42.11159 | -6.76781 | 28535 ft | 448 kts | 302° |
| 2026-04-30 19:46 | 42.12891 | -6.80209 | 28278 ft | 446 kts | 302° |
| 2026-04-30 19:46 | 42.14019 | -6.82443 | 28108 ft | 445 kts | 302° |
| 2026-04-30 19:46 | 42.16316 | -6.87000 | 27763 ft | 443 kts | 301° |
| 2026-04-30 19:46 | 42.18037 | -6.90438 | 27268 ft | 442 kts | 300° |
| 2026-04-30 19:47 | 42.19526 | -6.94039 | 26698 ft | 437 kts | 292° |
| 2026-04-30 19:47 | 42.19946 | -6.95288 | 26524 ft | 435 kts | 290° |
| 2026-04-30 19:47 | 42.21236 | -7.00408 | 25793 ft | 425 kts | 282° |
| 2026-04-30 19:47 | 42.21968 | -7.04240 | 25231 ft | 421 kts | 282° |
| 2026-04-30 19:48 | 42.22713 | -7.08048 | 24684 ft | 417 kts | 282° |
| 2026-04-30 19:48 | 42.23453 | -7.11818 | 24156 ft | 414 kts | 282° |
| 2026-04-30 19:48 | 42.24188 | -7.15569 | 23569 ft | 411 kts | 282° |
| 2026-04-30 19:48 | 42.24901 | -7.19224 | 23029 ft | 405 kts | 282° |
| 2026-04-30 19:49 | 42.25610 | -7.22871 | 22497 ft | 399 kts | 282° |
| 2026-04-30 19:49 | 42.26997 | -7.30035 | 21455 ft | 389 kts | 282° |
| 2026-04-30 19:49 | 42.27675 | -7.33551 | 20943 ft | 385 kts | 282° |
| 2026-04-30 19:50 | 42.28344 | -7.37030 | 20425 ft | 381 kts | 282° |
| 2026-04-30 19:50 | 42.29009 | -7.40491 | 19916 ft | 378 kts | 282° |
| 2026-04-30 19:50 | 42.29665 | -7.43913 | 19410 ft | 375 kts | 282° |
| 2026-04-30 19:50 | 42.30316 | -7.47313 | 18914 ft | 372 kts | 282° |
| 2026-04-30 19:51 | 42.30962 | -7.50693 | 18382 ft | 370 kts | 282° |
| 2026-04-30 19:51 | 42.31602 | -7.54046 | 17874 ft | 366 kts | 282° |
| 2026-04-30 19:51 | 42.32232 | -7.57350 | 17365 ft | 362 kts | 282° |
| 2026-04-30 19:51 | 42.32856 | -7.60634 | 16875 ft | 358 kts | 282° |
| 2026-04-30 19:52 | 42.33473 | -7.63885 | 16383 ft | 355 kts | 282° |
| 2026-04-30 19:52 | 42.34076 | -7.67067 | 15899 ft | 352 kts | 282° |
| 2026-04-30 19:52 | 42.34680 | -7.70260 | 15422 ft | 349 kts | 282° |
| 2026-04-30 19:52 | 42.35280 | -7.73438 | 14930 ft | 347 kts | 282° |
| 2026-04-30 19:53 | 42.35875 | -7.76586 | 14470 ft | 344 kts | 282° |
| 2026-04-30 19:53 | 42.36462 | -7.79710 | 14001 ft | 342 kts | 282° |
| 2026-04-30 19:53 | 42.37047 | -7.82816 | 13502 ft | 339 kts | 282° |
| 2026-04-30 19:53 | 42.37623 | -7.85886 | 13043 ft | 335 kts | 282° |
| 2026-04-30 19:54 | 42.38193 | -7.88927 | 12583 ft | 332 kts | 282° |
| 2026-04-30 19:54 | 42.38756 | -7.91939 | 12132 ft | 329 kts | 282° |
| 2026-04-30 19:54 | 42.39314 | -7.94926 | 11681 ft | 326 kts | 282° |
| 2026-04-30 19:54 | 42.39866 | -7.97889 | 11237 ft | 324 kts | 282° |
| 2026-04-30 19:55 | 42.40414 | -8.00835 | 10791 ft | 322 kts | 282° |
| 2026-04-30 19:55 | 42.40958 | -8.03756 | 10488 ft | 315 kts | 282° |
| 2026-04-30 19:55 | 42.41483 | -8.06581 | 10359 ft | 303 kts | 282° |
| 2026-04-30 19:55 | 42.41982 | -8.09265 | 10078 ft | 297 kts | 282° |
| 2026-04-30 19:56 | 42.42480 | -8.11955 | 9921 ft | 289 kts | 282° |
| 2026-04-30 19:56 | 42.42972 | -8.14619 | 9789 ft | 293 kts | 282° |
| 2026-04-30 19:56 | 42.43468 | -8.17310 | 9471 ft | 296 kts | 282° |
| 2026-04-30 19:56 | 42.43964 | -8.20008 | 9109 ft | 295 kts | 282° |
| 2026-04-30 19:57 | 42.44458 | -8.22691 | 8741 ft | 292 kts | 282° |
| 2026-04-30 19:57 | 42.44947 | -8.25348 | 8373 ft | 289 kts | 282° |
| 2026-04-30 19:57 | 42.45431 | -8.27980 | 8015 ft | 286 kts | 282° |
| 2026-04-30 19:57 | 42.45907 | -8.30578 | 7660 ft | 283 kts | 282° |
| 2026-04-30 19:58 | 42.46377 | -8.33148 | 7306 ft | 281 kts | 282° |
| 2026-04-30 19:58 | 42.46844 | -8.35701 | 6956 ft | 278 kts | 282° |
| 2026-04-30 19:58 | 42.47311 | -8.38261 | 6496 ft | 280 kts | 282° |
| 2026-04-30 19:58 | 42.47776 | -8.40815 | 6106 ft | 278 kts | 282° |
| 2026-04-30 19:59 | 42.48238 | -8.43348 | 5746 ft | 275 kts | 281° |
| 2026-04-30 19:59 | 42.48694 | -8.45848 | 5404 ft | 272 kts | 281° |
| 2026-04-30 19:59 | 42.49583 | -8.50740 | 5015 ft | 257 kts | 281° |
| 2026-04-30 20:00 | 42.49746 | -8.53058 | 4962 ft | 239 kts | 258° |
| 2026-04-30 20:00 | 42.49113 | -8.54992 | 4865 ft | 223 kts | 227° |
| 2026-04-30 20:00 | 42.47868 | -8.56100 | 4701 ft | 213 kts | 195° |
| 2026-04-30 20:00 | 42.46410 | -8.56466 | 4408 ft | 214 kts | 190° |
| 2026-04-30 20:01 | 42.43495 | -8.57142 | 4013 ft | 212 kts | 192° |
| 2026-04-30 20:01 | 42.42041 | -8.57526 | 4003 ft | 210 kts | 192° |
| 2026-04-30 20:01 | 42.40651 | -8.57900 | 3933 ft | 198 kts | 192° |
| 2026-04-30 20:02 | 42.38037 | -8.58622 | 3730 ft | 195 kts | 192° |
| 2026-04-30 20:02 | 42.36699 | -8.58987 | 3423 ft | 197 kts | 192° |
| 2026-04-30 20:03 | 42.34014 | -8.59723 | 2838 ft | 193 kts | 192° |
| 2026-04-30 20:03 | 42.32745 | -8.60069 | 2630 ft | 177 kts | 192° |
| 2026-04-30 20:03 | 42.31585 | -8.60386 | 2389 ft | 161 kts | 192° |
| 2026-04-30 20:03 | 42.30544 | -8.60671 | 2166 ft | 145 kts | 192° |
| 2026-04-30 20:04 | 42.29604 | -8.60928 | 1940 ft | 131 kts | 192° |
| 2026-04-30 20:04 | 42.28737 | -8.61165 | 1788 ft | 129 kts | 192° |
| 2026-04-30 20:04 | 42.27837 | -8.61410 | 1599 ft | 133 kts | 193° |
| 2026-04-30 20:05 | 42.26023 | -8.61906 | 1219 ft | 134 kts | 193° |
| 2026-04-30 20:05 | 42.25122 | -8.62147 | 1059 ft | 134 kts | 194° |
| 2026-04-30 20:05 | 42.23344 | -8.62638 | 835 ft | 104 kts | 192° |
| 2026-04-30 20:06 | 42.22928 | -8.62752 | 837 ft | 30 kts | 199° |
| 2026-04-30 20:06 | 42.22794 | -8.62882 | 839 ft | 13 kts | 221° |
| 2026-04-30 20:06 | 42.22730 | -8.62952 | 834 ft | 6 kts | 218° |
| 2026-04-30 20:06 | 42.22710 | -8.62972 | 838 ft | 3 kts | 218° |
| 2026-04-30 20:07 | 42.22693 | -8.62991 | 838 ft | 3 kts | 219° |
| 2026-04-30 20:07 | 42.22684 | -8.63001 | 838 ft | 0 kts | 219° |
| 2026-04-30 20:07 | 42.22662 | -8.63024 | 836 ft | 6 kts | 216° |
| 2026-04-30 20:08 | 42.22618 | -8.63051 | 834 ft | 7 kts | 195° |
| 2026-04-30 20:08 | 42.22606 | -8.63053 | 842 ft | 0 kts | 191° |
| 2026-04-30 20:08 | 42.22587 | -8.63058 | 841 ft | 5 kts | 191° |
| 2026-04-30 20:09 | 42.22541 | -8.63070 | 834 ft | 8 kts | 191° |
| 2026-04-30 20:09 | 42.22495 | -8.63083 | 836 ft | 8 kts | 191° |
| 2026-04-30 20:09 | 42.22462 | -8.63094 | 837 ft | 4 kts | 205° |
| 2026-04-30 20:10 | 42.22459 | -8.63165 | 838 ft | 3 kts | 282° |
| 2026-04-30 20:10 | 42.22462 | -8.63186 | 838 ft | 1 kts | 281° |
| 2026-04-30 20:10 | 42.22463 | -8.63187 | 839 ft | 0 kts | 281° |